Time;durP1;ratioP1;P1;durP2;ratioP2;P2;SDS_P1;SDS_P2;PMS_P1;PMS_P2;Temp;Humidity;BMP_temperature;BMP_pressure;BME280_temperature;BME280_humidity;BME280_pressure;Samples;Min_cycle;Max_cycle;Signal;HPM_P1;HPM_P2
2021/04/30 00:00:38;;;;;;;23.05;9.90;;;307.20;2304.00;;;;;;5036086;28;20025;-73
2021/04/30 00:03:04;;;;;;;17.45;9.10;;;282.50;2278.40;;;;;;5035603;28;20024;-72
2021/04/30 00:05:31;;;;;;;17.08;8.93;;;282.50;2278.40;;;;;;5035487;28;20033;-73
2021/04/30 00:07:58;;;;;;;18.77;8.57;;;282.50;2278.40;;;;;;5035743;28;20021;-74
2021/04/30 00:10:25;;;;;;;27.45;9.32;;;307.20;2304.00;;;;;;5034800;28;20029;-74
2021/04/30 00:12:52;;;;;;;21.10;8.38;;;307.20;2304.00;;;;;;5033918;28;20048;-74
2021/04/30 00:15:18;;;;;;;19.70;9.27;;;307.20;2304.00;;;;;;5034183;28;20033;-75
2021/04/30 00:17:44;;;;;;;11.95;8.15;;;307.20;2304.00;;;;;;5035266;28;20028;-71
2021/04/30 00:20:12;;;;;;;14.25;8.35;;;307.20;2304.00;;;;;;5037629;28;20034;-71
2021/04/30 00:22:37;;;;;;;15.60;8.82;;;282.50;2278.40;;;;;;5037154;28;20021;-73
2021/04/30 00:25:04;;;;;;;18.60;9.27;;;307.20;2304.00;;;;;;5037656;28;20171;-73
2021/04/30 00:27:30;;;;;;;13.88;9.30;;;282.50;2278.40;;;;;;5037911;28;20029;-73
2021/04/30 00:29:56;;;;;;;13.80;8.35;;;282.50;2278.40;;;;;;5037899;28;20052;-72
2021/04/30 00:32:21;;;;;;;16.17;8.90;;;282.40;2278.40;;;;;;5037478;28;20037;-72
2021/04/30 00:34:47;;;;;;;17.05;8.77;;;282.50;2278.40;;;;;;5037774;28;20025;-73
2021/04/30 00:37:13;;;;;;;14.73;9.02;;;282.50;2278.40;;;;;;5037738;28;20021;-71
2021/04/30 00:39:39;;;;;;;17.85;9.60;;;282.50;2278.40;;;;;;5019433;28;20112;-71
2021/04/30 00:42:05;;;;;;;27.27;10.63;;;282.40;2278.40;;;;;;5036887;28;20445;-71
2021/04/30 00:44:31;;;;;;;16.95;10.32;;;282.40;2278.40;;;;;;5037405;28;20041;-72
2021/04/30 00:46:58;;;;;;;26.45;11.23;;;282.40;2278.40;;;;;;5036772;28;20075;-71
2021/04/30 00:49:24;;;;;;;21.48;10.75;;;282.40;2278.40;;;;;;5037310;28;20322;-72
2021/04/30 00:51:50;;;;;;;23.17;10.13;;;282.30;2278.40;;;;;;5036927;28;20041;-74
2021/04/30 00:54:18;;;;;;;17.30;10.05;;;282.30;2278.40;;;;;;5037288;28;20033;-71
2021/04/30 00:56:44;;;;;;;21.05;11.55;;;282.30;2278.40;;;;;;5037543;28;20399;-72
2021/04/30 00:59:11;;;;;;;20.05;9.52;;;282.30;2278.40;;;;;;5037249;28;20091;-71
2021/04/30 01:01:38;;;;;;;25.17;11.85;;;282.20;2278.40;;;;;;5037273;28;20036;-72
2021/04/30 01:04:04;;;;;;;19.50;10.50;;;282.20;2278.40;;;;;;5037183;28;20028;-73
2021/04/30 01:06:31;;;;;;;22.27;12.07;;;282.10;2278.40;;;;;;5036583;28;20349;-72
2021/04/30 01:08:57;;;;;;;20.45;12.65;;;282.00;2278.40;;;;;;5036894;28;20025;-72
2021/04/30 01:11:23;;;;;;;22.58;11.73;;;282.00;2278.40;;;;;;5036941;28;20032;-71
2021/04/30 01:13:49;;;;;;;31.60;12.23;;;282.00;2278.40;;;;;;5037080;28;20026;-73
2021/04/30 01:16:15;;;;;;;23.45;11.77;;;281.90;2278.40;;;;;;5037389;28;20029;-72
2021/04/30 01:18:44;;;;;;;23.70;11.68;;;282.00;2278.40;;;;;;5037360;28;20032;-74
2021/04/30 01:21:11;;;;;;;21.15;12.40;;;282.00;2278.40;;;;;;5036716;28;20033;-71
2021/04/30 01:23:48;;;;;;;24.80;12.57;;;282.00;2278.40;;;;;;5037317;28;20064;-72
2021/04/30 01:26:15;;;;;;;26.17;13.45;;;282.10;2278.40;;;;;;5037275;28;20022;-73
2021/04/30 01:28:40;;;;;;;21.70;12.52;;;282.00;2278.40;;;;;;5018958;28;20412;-71
2021/04/30 01:31:06;;;;;;;23.42;11.70;;;282.00;2278.40;;;;;;5036858;28;20120;-71
2021/04/30 01:33:33;;;;;;;43.47;13.00;;;282.10;2278.40;;;;;;5036930;28;20422;-71
2021/04/30 01:35:58;;;;;;;26.73;12.10;;;282.10;2278.40;;;;;;5036794;28;20026;-72
2021/04/30 01:38:25;;;;;;;27.08;13.05;;;282.10;2278.40;;;;;;5037202;28;20029;-73
2021/04/30 01:40:50;;;;;;;24.08;11.52;;;282.00;2278.40;;;;;;5036576;28;20303;-73
2021/04/30 01:43:18;;;;;;;30.10;10.55;;;282.00;2278.40;;;;;;5036005;28;20036;-72
2021/04/30 01:45:52;;;;;;;15.88;8.05;;;282.00;2278.40;;;;;;5036529;28;20108;-71
2021/04/30 01:48:22;;;;;;;22.65;8.98;;;282.00;2278.40;;;;;;5037395;28;20054;-71
2021/04/30 01:50:49;;;;;;;17.23;8.02;;;282.10;2278.40;;;;;;5036381;28;20030;-73
2021/04/30 01:53:26;;;;;;;23.45;8.43;;;282.10;2278.40;;;;;;5036997;28;20032;-72
2021/04/30 01:55:52;;;;;;;23.60;10.57;;;282.10;2278.40;;;;;;5036775;28;20024;-71
2021/04/30 01:58:19;;;;;;;31.70;10.73;;;282.00;2278.40;;;;;;5038528;28;20400;-71
2021/04/30 02:00:47;;;;;;;20.08;10.30;;;282.00;2278.40;;;;;;5040234;28;20299;-71
2021/04/30 02:03:13;;;;;;;20.02;10.60;;;282.00;2278.40;;;;;;5039514;28;20071;-73
2021/04/30 02:05:40;;;;;;;24.27;10.52;;;282.00;2278.40;;;;;;5039747;28;20104;-72
2021/04/30 02:08:11;;;;;;;20.05;10.85;;;282.00;2278.40;;;;;;5040215;28;20032;-72
2021/04/30 02:10:38;;;;;;;30.00;11.75;;;282.00;2278.40;;;;;;5040190;28;20021;-73
2021/04/30 02:13:05;;;;;;;24.70;10.43;;;281.90;2278.40;;;;;;5040160;28;20029;-71
2021/04/30 02:15:35;;;;;;;22.65;11.38;;;281.70;2278.40;;;;;;5040395;28;20418;-73
2021/04/30 02:18:01;;;;;;;22.48;11.32;;;281.70;2278.40;;;;;;5039808;28;20079;-72
2021/04/30 02:20:27;;;;;;;24.65;11.20;;;281.80;2278.40;;;;;;5040272;28;20030;-71
2021/04/30 02:22:53;;;;;;;22.00;11.15;;;281.80;2278.40;;;;;;5040246;28;20033;-74
2021/04/30 02:25:20;;;;;;;20.88;11.57;;;281.80;2278.40;;;;;;5039937;28;20346;-73
2021/04/30 02:27:47;;;;;;;21.20;11.98;;;281.80;2278.40;;;;;;5039910;28;20030;-73
2021/04/30 02:30:16;;;;;;;33.75;10.77;;;281.80;2278.40;;;;;;5040111;28;20108;-72
2021/04/30 02:32:42;;;;;;;20.33;11.18;;;281.70;2278.40;;;;;;5039657;28;20061;-73
2021/04/30 02:35:14;;;;;;;20.55;11.63;;;281.70;2278.40;;;;;;5039740;28;20037;-72
2021/04/30 02:37:40;;;;;;;20.40;11.18;;;281.70;2278.40;;;;;;5040025;28;20032;-72
2021/04/30 02:40:08;;;;;;;21.27;11.38;;;281.60;2278.40;;;;;;5039371;28;20026;-72
2021/04/30 02:42:34;;;;;;;17.17;10.63;;;256.80;2252.80;;;;;;5039870;28;20029;-72
2021/04/30 02:45:02;;;;;;;18.90;10.88;;;256.80;2252.80;;;;;;5039266;28;20116;-71
2021/04/30 02:47:31;;;;;;;27.40;11.25;;;256.70;2252.80;;;;;;5039408;28;20427;-73
2021/04/30 02:50:00;;;;;;;30.50;12.77;;;256.70;2252.80;;;;;;5039207;28;20034;-73
2021/04/30 02:52:27;;;;;;;23.02;12.10;;;256.80;2252.80;;;;;;5038862;28;20319;-73
2021/04/30 02:54:53;;;;;;;27.33;11.75;;;256.80;2252.80;;;;;;5039388;28;20099;-74
2021/04/30 02:57:19;;;;;;;25.00;11.02;;;256.70;2252.80;;;;;;5039120;28;20418;-71
2021/04/30 02:59:46;;;;;;;22.35;11.68;;;256.70;2252.80;;;;;;5039053;28;20055;-72
2021/04/30 03:02:13;;;;;;;33.58;14.70;;;256.70;2252.80;;;;;;5021838;28;20079;-72
2021/04/30 03:04:39;;;;;;;28.30;13.35;;;256.70;2252.80;;;;;;5039149;28;20032;-72
2021/04/30 03:07:06;;;;;;;32.45;14.35;;;256.70;2252.80;;;;;;5038880;28;20116;-73
2021/04/30 03:09:32;;;;;;;33.00;14.63;;;256.60;2252.80;;;;;;5037919;28;20079;-72
2021/04/30 03:11:57;;;;;;;33.47;15.57;;;256.60;2252.80;;;;;;5039050;28;20065;-72
2021/04/30 03:14:23;;;;;;;37.10;16.02;;;256.60;2252.80;;;;;;5038746;28;20036;-72
2021/04/30 03:16:49;;;;;;;38.78;14.45;;;256.60;2252.80;;;;;;5038718;28;20079;-73
2021/04/30 03:19:15;;;;;;;30.55;12.25;;;256.60;2252.80;;;;;;5038896;28;20022;-71
2021/04/30 03:21:42;;;;;;;34.58;13.10;;;256.60;2252.80;;;;;;5038074;28;20055;-72
2021/04/30 03:24:09;;;;;;;21.27;9.25;;;256.60;2252.80;;;;;;5038787;28;20027;-73
2021/04/30 03:26:35;;;;;;;21.02;5.85;;;256.50;2252.80;;;;;;5038374;28;20025;-73
2021/04/30 03:29:02;;;;;;;9.13;4.53;;;256.70;2252.80;;;;;;5038136;28;20472;-72
2021/04/30 03:31:28;;;;;;;8.70;4.30;;;256.80;2252.80;;;;;;5038310;28;20040;-71
2021/04/30 03:33:53;;;;;;;5.90;3.63;;;281.60;2278.40;;;;;;5038635;28;20304;-74
2021/04/30 03:36:20;;;;;;;10.52;3.63;;;281.60;2278.40;;;;;;5038872;28;20025;-72
2021/04/30 03:38:47;;;;;;;11.15;3.60;;;281.70;2278.40;;;;;;5038532;28;20029;-71
2021/04/30 03:41:14;;;;;;;9.00;4.28;;;281.70;2278.40;;;;;;5038467;28;20284;-71
2021/04/30 03:43:40;;;;;;;8.50;5.03;;;281.80;2278.40;;;;;;5038475;28;20087;-74
2021/04/30 03:46:06;;;;;;;9.43;5.45;;;281.90;2278.40;;;;;;5037805;28;20028;-71
2021/04/30 03:48:32;;;;;;;17.55;8.02;;;282.00;2278.40;;;;;;5037621;28;20427;-71
2021/04/30 03:50:58;;;;;;;18.38;8.65;;;281.90;2278.40;;;;;;5038205;28;20021;-73
2021/04/30 03:53:25;;;;;;;24.02;10.05;;;281.60;2278.40;;;;;;5038234;28;20021;-71
2021/04/30 03:55:51;;;;;;;18.08;10.55;;;281.60;2278.40;;;;;;5038111;28;20029;-72
2021/04/30 03:58:18;;;;;;;31.02;10.88;;;281.60;2278.40;;;;;;5038199;28;20037;-74
2021/04/30 04:00:43;;;;;;;26.13;10.10;;;256.90;2252.80;;;;;;5038390;28;20029;-72
2021/04/30 04:03:09;;;;;;;26.58;9.82;;;256.90;2252.80;;;;;;5037521;28;20437;-72
2021/04/30 04:05:35;;;;;;;28.20;9.55;;;281.60;2278.40;;;;;;5037982;28;20327;-73
2021/04/30 04:08:01;;;;;;;24.33;10.23;;;281.60;2278.40;;;;;;5037678;28;20028;-72
2021/04/30 04:10:27;;;;;;;22.02;7.72;;;281.60;2278.40;;;;;;5037670;28;20026;-73
2021/04/30 04:12:53;;;;;;;15.80;8.00;;;281.80;2278.40;;;;;;5038098;28;20032;-72
2021/04/30 04:15:19;;;;;;;49.92;10.85;;;282.00;2278.40;;;;;;5037820;28;20030;-71
2021/04/30 04:17:45;;;;;;;16.55;8.38;;;282.10;2278.40;;;;;;5037574;28;20025;-72
2021/04/30 04:20:11;;;;;;;19.85;7.63;;;282.30;2278.40;;;;;;5037613;28;20029;-71
2021/04/30 04:22:38;;;;;;;17.08;8.57;;;282.50;2278.40;;;;;;5037297;28;20115;-73
2021/04/30 04:25:05;;;;;;;8.35;4.72;;;307.20;2304.00;;;;;;5037610;28;20030;-72
2021/04/30 04:27:31;;;;;;;9.13;2.95;;;307.40;2304.00;;;;;;5037828;28;20057;-73
2021/04/30 04:29:57;;;;;;;7.97;3.13;;;307.50;2304.00;;;;;;5037634;28;20030;-72
2021/04/30 04:32:23;;;;;;;15.95;4.35;;;307.70;2304.00;;;;;;5037788;28;20079;-72
2021/04/30 04:34:49;;;;;;;8.02;4.07;;;307.90;2304.00;;;;;;5037520;28;20026;-71
2021/04/30 04:37:14;;;;;;;11.10;5.05;;;308.10;2304.00;;;;;;5036990;28;20026;-72
2021/04/30 04:39:40;;;;;;;9.43;3.90;;;332.90;2329.60;;;;;;5037460;28;20037;-72
2021/04/30 04:42:06;;;;;;;9.60;3.80;;;333.00;2329.60;;;;;;5037446;28;20036;-72
2021/04/30 04:44:33;;;;;;;20.42;10.18;;;333.30;2329.60;;;;;;5037184;28;20078;-73
2021/04/30 04:46:59;;;;;;;13.90;6.72;;;333.30;2329.60;;;;;;5037434;28;20131;-71
2021/04/30 04:49:25;;;;;;;22.15;10.27;;;333.30;2329.60;;;;;;5037927;28;20036;-71
2021/04/30 04:51:51;;;;;;;11.50;6.68;;;333.50;2329.60;;;;;;5037013;28;20030;-73
2021/04/30 04:54:18;;;;;;;21.17;8.60;;;333.60;2329.60;;;;;;5037277;28;20079;-72
2021/04/30 04:56:44;;;;;;;14.48;8.15;;;333.60;2329.60;;;;;;5036975;28;20407;-72
2021/04/30 04:59:10;;;;;;;38.67;17.35;;;333.60;2329.60;;;;;;5036421;28;20389;-71
2021/04/30 05:01:36;;;;;;;26.88;11.30;;;333.60;2329.60;;;;;;5036909;28;20079;-73
2021/04/30 05:04:02;;;;;;;33.95;8.85;;;333.70;2329.60;;;;;;5037118;28;20030;-72
2021/04/30 05:06:28;;;;;;;33.38;11.73;;;333.70;2329.60;;;;;;5037164;28;20028;-72
2021/04/30 05:08:54;;;;;;;38.95;11.77;;;333.60;2329.60;;;;;;5037132;28;20378;-72
2021/04/30 05:11:20;;;;;;;50.63;15.57;;;333.50;2329.60;;;;;;5037270;28;20044;-71
2021/04/30 05:13:46;;;;;;;45.25;15.45;;;333.40;2329.60;;;;;;5036813;28;20315;-72
2021/04/30 05:16:13;;;;;;;69.93;33.05;;;333.50;2329.60;;;;;;5037048;28;20032;-72
2021/04/30 05:18:39;;;;;;;30.70;13.38;;;333.60;2329.60;;;;;;5036775;28;20025;-72
2021/04/30 05:21:06;;;;;;;74.82;37.15;;;333.70;2329.60;;;;;;5036730;28;20021;-72
2021/04/30 05:23:33;;;;;;;47.05;20.95;;;333.70;2329.60;;;;;;5036976;28;20060;-71
2021/04/30 05:25:59;;;;;;;83.45;54.83;;;358.40;2329.60;;;;;;5036679;28;20048;-74
2021/04/30 05:28:25;;;;;;;43.72;28.13;;;358.50;2329.60;;;;;;5036898;28;20065;-72
2021/04/30 05:30:51;;;;;;;25.95;9.32;;;358.70;2329.60;;;;;;5036945;28;20029;-72
2021/04/30 05:33:16;;;;;;;61.30;22.88;;;358.80;2329.60;;;;;;5038741;28;20156;-72
2021/04/30 05:35:42;;;;;;;32.55;11.82;;;359.00;2329.60;;;;;;5041131;28;20025;-72
2021/04/30 05:38:08;;;;;;;26.92;9.40;;;359.30;2329.60;;;;;;5040828;28;20060;-72
2021/04/30 05:40:34;;;;;;;16.60;6.28;;;384.00;2329.60;;;;;;5040467;28;20071;-74
2021/04/30 05:43:00;;;;;;;12.88;4.40;;;384.20;2329.60;;;;;;5040716;28;20033;-72
2021/04/30 05:45:26;;;;;;;10.73;5.05;;;384.50;2329.60;;;;;;5040103;28;20022;-72
2021/04/30 05:47:52;;;;;;;12.52;3.05;;;384.70;2329.60;;;;;;5040512;28;20505;-72
2021/04/30 05:50:18;;;;;;;11.52;5.57;;;384.70;2329.60;;;;;;5040903;28;20104;-73
2021/04/30 05:52:45;;;;;;;11.65;3.40;;;384.90;2329.60;;;;;;5040331;28;20478;-72
2021/04/30 05:55:11;;;;;;;5.65;2.28;;;409.60;2355.20;;;;;;5040239;28;20052;-72
2021/04/30 05:57:38;;;;;;;12.82;3.40;;;409.60;2355.20;;;;;;5040554;28;20025;-73
2021/04/30 06:00:10;;;;;;;8.18;3.35;;;409.80;2355.20;;;;;;5040378;28;20112;-73
2021/04/30 06:02:36;;;;;;;6.80;2.75;;;410.10;2355.20;;;;;;5040292;28;20029;-74
2021/04/30 06:05:04;;;;;;;7.88;2.83;;;410.30;2355.20;;;;;;5040576;28;20021;-73
2021/04/30 06:07:30;;;;;;;9.52;3.63;;;435.20;2355.20;;;;;;5040446;28;20029;-74
2021/04/30 06:09:55;;;;;;;6.05;2.92;;;435.50;2355.20;;;;;;5039604;28;20025;-74
2021/04/30 06:12:21;;;;;;;12.93;4.90;;;435.70;2355.20;;;;;;5040019;28;20037;-74
2021/04/30 06:14:47;;;;;;;14.30;6.55;;;435.80;2355.20;;;;;;5039137;28;20028;-73
2021/04/30 06:17:16;;;;;;;22.60;9.77;;;435.80;2355.20;;;;;;5040353;28;20032;-74
2021/04/30 06:19:41;;;;;;;41.92;12.18;;;435.70;2355.20;;;;;;5040034;28;20022;-72
2021/04/30 06:22:08;;;;;;;34.50;10.77;;;435.70;2355.20;;;;;;5039712;28;20033;-71
2021/04/30 06:24:33;;;;;;;46.60;11.68;;;435.80;2355.20;;;;;;5039354;28;20378;-72
2021/04/30 06:26:59;;;;;;;44.20;11.80;;;435.80;2355.20;;;;;;5039899;28;20030;-71
2021/04/30 06:29:25;;;;;;;49.17;12.38;;;435.90;2355.20;;;;;;5039607;28;20315;-73
2021/04/30 06:31:51;;;;;;;46.22;13.18;;;435.90;2355.20;;;;;;5040057;28;20033;-74
2021/04/30 06:34:16;;;;;;;54.30;13.43;;;436.00;2355.20;;;;;;5039755;28;20035;-72
2021/04/30 06:36:42;;;;;;;33.70;10.27;;;460.80;2380.80;;;;;;5039034;28;20030;-72
2021/04/30 06:39:08;;;;;;;42.80;13.15;;;461.00;2380.80;;;;;;5039102;28;20025;-72
2021/04/30 06:41:34;;;;;;;42.33;12.50;;;461.20;2380.80;;;;;;5039651;28;20034;-71
2021/04/30 06:44:00;;;;;;;47.20;13.63;;;461.30;2380.80;;;;;;5038619;28;20032;-71
2021/04/30 06:46:27;;;;;;;35.05;11.68;;;461.40;2380.80;;;;;;5039178;28;20076;-73
2021/04/30 06:48:53;;;;;;;28.35;10.32;;;461.60;2380.80;;;;;;5038899;28;20357;-71
2021/04/30 06:51:19;;;;;;;40.60;8.00;;;486.40;2380.80;;;;;;5038543;28;20037;-72
2021/04/30 06:53:45;;;;;;;27.05;6.68;;;486.70;2380.80;;;;;;5039448;28;20033;-71
2021/04/30 06:56:11;;;;;;;31.13;7.82;;;487.10;2380.80;;;;;;5039591;28;20029;-72
2021/04/30 06:58:37;;;;;;;28.35;5.22;;;487.30;2380.80;;;;;;5039089;28;20035;-71
2021/04/30 07:01:04;;;;;;;13.93;3.50;;;512.20;2380.80;;;;;;5039293;28;20025;-73
2021/04/30 07:03:30;;;;;;;17.42;5.70;;;512.50;2380.80;;;;;;5039523;28;20025;-72
2021/04/30 07:05:56;;;;;;;7.72;2.35;;;512.60;2329.60;;;;;;5038343;28;20327;-72
2021/04/30 07:08:22;;;;;;;11.10;3.78;;;512.60;2150.40;;;;;;5039124;28;20021;-72
2021/04/30 07:10:48;;;;;;;13.25;4.72;;;512.60;2252.80;;;;;;5039099;28;20032;-71
2021/04/30 07:13:14;;;;;;;9.63;4.65;;;512.60;2278.40;;;;;;5039013;28;20092;-73
2021/04/30 07:15:40;;;;;;;20.45;7.00;;;512.70;2201.60;;;;;;5039029;28;20049;-72
2021/04/30 07:18:06;;;;;;;27.20;5.78;;;512.70;2201.60;;;;;;5038719;28;20407;-71
2021/04/30 07:20:34;;;;;;;26.33;6.22;;;512.80;2227.20;;;;;;5038304;28;20490;-73
2021/04/30 07:23:02;;;;;;;34.65;7.72;;;537.60;2278.40;;;;;;5038829;28;20034;-72
2021/04/30 07:25:29;;;;;;;32.20;9.73;;;537.70;2304.00;;;;;;5038147;28;20466;-73
2021/04/30 07:27:55;;;;;;;14.07;5.93;;;537.90;2355.20;;;;;;5037852;28;20032;-72
2021/04/30 07:30:21;;;;;;;13.82;4.38;;;537.90;2406.40;;;;;;5038686;28;20025;-72
2021/04/30 07:32:47;;;;;;;19.10;3.97;;;538.00;2355.20;;;;;;5038340;28;20034;-71
2021/04/30 07:35:13;;;;;;;19.60;4.57;;;538.10;2329.60;;;;;;5038893;28;20033;-71
2021/04/30 07:37:39;;;;;;;14.25;4.57;;;538.20;2278.40;;;;;;5038368;28;20034;-73
2021/04/30 07:40:07;;;;;;;12.68;4.05;;;538.30;2278.40;;;;;;5038215;28;20095;-73
2021/04/30 07:42:33;;;;;;;15.13;3.08;;;538.40;2227.20;;;;;;5038145;28;20342;-71
2021/04/30 07:44:58;;;;;;;13.82;3.92;;;538.50;2124.80;;;;;;5038403;28;20029;-72
2021/04/30 07:47:24;;;;;;;11.30;3.13;;;563.40;2124.80;;;;;;5037373;28;20481;-72
2021/04/30 07:49:50;;;;;;;23.17;3.63;;;563.50;2099.20;;;;;;5038058;28;20116;-72
2021/04/30 07:52:16;;;;;;;8.85;3.28;;;563.80;2073.60;;;;;;5038507;28;20060;-73
2021/04/30 07:54:42;;;;;;;13.48;3.28;;;563.90;2022.40;;;;;;5037820;28;20057;-73
2021/04/30 07:57:08;;;;;;;13.88;2.97;;;564.00;1996.80;;;;;;5037411;28;20388;-71
2021/04/30 07:59:35;;;;;;;9.43;2.65;;;563.80;1945.60;;;;;;5037782;28;20362;-71
2021/04/30 08:02:01;;;;;;;10.38;2.80;;;563.80;1894.40;;;;;;5037869;28;20037;-71
2021/04/30 08:04:26;;;;;;;9.13;2.45;;;563.80;1920.00;;;;;;5038082;28;20032;-71
2021/04/30 08:06:52;;;;;;;6.78;3.40;;;564.00;1945.60;;;;;;5037979;28;20029;-71
2021/04/30 08:09:18;;;;;;;10.43;2.78;;;564.00;1920.00;;;;;;5037986;28;20031;-72
2021/04/30 08:11:44;;;;;;;7.07;2.70;;;588.90;1945.60;;;;;;5037909;28;20339;-71
2021/04/30 08:14:10;;;;;;;10.27;2.75;;;589.00;1894.40;;;;;;5037912;28;20070;-72
2021/04/30 08:16:37;;;;;;;7.78;2.55;;;588.90;1766.40;;;;;;5037885;28;20160;-72
2021/04/30 08:19:04;;;;;;;8.25;2.78;;;589.10;1792.00;;;;;;5038069;28;20021;-72
2021/04/30 08:21:31;;;;;;;6.18;2.45;;;589.20;1792.00;;;;;;5037282;28;20350;-73
2021/04/30 08:23:57;;;;;;;6.18;2.10;;;589.20;1792.00;;;;;;5037498;28;20037;-72
2021/04/30 08:26:23;;;;;;;10.05;3.05;;;589.40;1740.80;;;;;;5037429;28;20425;-73
2021/04/30 08:28:50;;;;;;;11.70;2.60;;;589.60;1638.40;;;;;;5037996;28;20113;-73
2021/04/30 08:31:16;;;;;;;9.65;3.55;;;614.40;1612.80;;;;;;5037858;28;20025;-73
2021/04/30 08:33:42;;;;;;;5.40;2.30;;;614.40;1638.40;;;;;;5037939;28;20036;-73
2021/04/30 08:36:08;;;;;;;7.05;3.42;;;589.70;1689.60;;;;;;5037315;28;20067;-73
2021/04/30 08:38:36;;;;;;;10.15;2.13;;;614.40;1689.60;;;;;;5037820;28;20063;-72
2021/04/30 08:41:03;;;;;;;7.95;2.15;;;589.60;1715.20;;;;;;5037770;28;20021;-73
2021/04/30 08:43:28;;;;;;;4.55;2.05;;;589.40;1664.00;;;;;;5037480;28;20025;-73
2021/04/30 08:45:55;;;;;;;4.95;2.03;;;589.50;1715.20;;;;;;5037659;28;20032;-72
2021/04/30 08:48:25;;;;;;;6.55;2.30;;;589.50;1715.20;;;;;;5037227;28;20061;-73
2021/04/30 08:50:53;;;;;;;7.07;2.63;;;589.50;1715.20;;;;;;5037596;28;20030;-73
2021/04/30 08:53:19;;;;;;;7.72;2.75;;;589.60;1638.40;;;;;;5036919;28;20037;-74
2021/04/30 08:55:48;;;;;;;7.55;2.38;;;589.70;1664.00;;;;;;5037306;28;20036;-75
2021/04/30 08:58:14;;;;;;;6.78;3.33;;;614.50;1715.20;;;;;;5037571;28;20112;-74
2021/04/30 09:00:40;;;;;;;7.68;2.55;;;614.80;1664.00;;;;;;5037539;28;20061;-73
2021/04/30 09:03:09;;;;;;;11.32;1.90;;;614.70;1612.80;;;;;;5037214;28;20405;-73
2021/04/30 09:05:35;;;;;;;6.15;1.98;;;614.90;1612.80;;;;;;5037191;28;20025;-72
2021/04/30 09:08:02;;;;;;;8.75;2.20;;;615.00;1561.60;;;;;;5036651;28;20075;-74
2021/04/30 09:10:36;;;;;;;7.75;2.30;;;615.30;1536.00;;;;;;5036896;28;20021;-71
2021/04/30 09:13:02;;;;;;;7.70;2.05;;;640.30;1510.40;;;;;;5037038;28;20037;-73
2021/04/30 09:15:28;;;;;;;11.27;2.00;;;640.40;1536.00;;;;;;5037383;28;20032;-72
2021/04/30 09:17:56;;;;;;;7.70;2.38;;;640.70;1484.80;;;;;;5036838;28;20108;-74
2021/04/30 09:20:22;;;;;;;;;;;665.70;1484.80;;;;;;5037782;28;20025;-73
2021/04/30 09:22:48;;;;;;;8.02;1.85;;;665.60;1459.20;;;;;;5037088;28;19905;-73
2021/04/30 09:25:19;;;;;;;8.02;1.98;;;665.70;1459.20;;;;;;5036737;28;20021;-73
2021/04/30 09:27:47;;;;;;;7.68;1.95;;;665.90;1510.40;;;;;;5036378;28;20044;-72
2021/04/30 09:30:17;;;;;;;7.22;2.05;;;666.00;1459.20;;;;;;5036677;28;20032;-73
2021/04/30 09:33:04;;;;;;;8.85;1.98;;;666.10;1459.20;;;;;;5036928;28;20037;-73
2021/04/30 09:35:31;;;;;;;4.78;1.80;;;666.10;1433.60;;;;;;5037232;28;20074;-72
2021/04/30 09:37:57;;;;;;;5.70;1.73;;;666.40;1408.00;;;;;;5036904;28;20056;-73
2021/04/30 09:40:31;;;;;;;5.95;1.75;;;666.20;1382.40;;;;;;5037134;28;20152;-75
2021/04/30 09:43:08;;;;;;;4.75;1.50;;;666.40;1433.60;;;;;;5035533;28;20580;-73
2021/04/30 09:45:34;;;;;;;9.77;1.90;;;666.30;1484.80;;;;;;5035998;28;20026;-73
2021/04/30 09:48:11;;;;;;;10.15;1.95;;;691.30;1433.60;;;;;;5036097;28;20426;-72
2021/04/30 09:50:39;;;;;;;9.73;1.73;;;691.50;1356.80;;;;;;5036835;28;20037;-74
2021/04/30 09:53:09;;;;;;;8.45;2.17;;;691.60;1331.20;;;;;;5036138;28;20041;-74
2021/04/30 09:55:42;;;;;;;10.45;2.40;;;691.70;1331.20;;;;;;5036415;28;20030;-74
2021/04/30 09:58:22;;;;;;;4.85;1.50;;;691.50;1331.20;;;;;;5036863;28;20115;-75
2021/04/30 10:00:53;;;;;;;5.90;1.67;;;691.30;1331.20;;;;;;5036381;28;20026;-73
2021/04/30 10:03:23;;;;;;;5.80;1.67;;;666.40;1356.80;;;;;;5036358;28;20026;-74
2021/04/30 10:06:12;;;;;;;10.35;3.00;;;666.50;1382.40;;;;;;5036376;28;20052;-73
2021/04/30 10:08:38;;;;;;;5.40;1.40;;;691.30;1408.00;;;;;;5036978;28;20030;-72
2021/04/30 10:11:04;;;;;;;16.13;2.28;;;691.50;1382.40;;;;;;5036196;28;20029;-73
2021/04/30 10:13:30;;;;;;;5.50;1.55;;;691.50;1382.40;;;;;;5036336;28;20026;-74
2021/04/30 10:15:56;;;;;;;10.95;1.80;;;691.30;1331.20;;;;;;5036821;28;20029;-73
2021/04/30 10:18:24;;;;;;;11.75;2.03;;;691.40;1382.40;;;;;;5036236;28;20032;-72
2021/04/30 10:20:50;;;;;;;5.88;1.40;;;691.50;1382.40;;;;;;5039094;28;20440;-74
2021/04/30 10:23:22;;;;;;;13.23;4.65;;;691.60;1382.40;;;;;;5039735;28;20132;-74
2021/04/30 10:25:50;;;;;;;8.15;2.30;;;691.80;1331.20;;;;;;5039945;28;20428;-73
2021/04/30 10:28:23;;;;;;;12.93;1.90;;;691.90;1254.40;;;;;;5039973;28;20326;-73
2021/04/30 10:31:09;;;;;;;3.97;1.40;;;692.00;1331.20;;;;;;5039956;28;20080;-73
2021/04/30 10:33:51;;;;;;;7.03;1.50;;;716.80;1331.20;;;;;;5039841;28;20025;-72
2021/04/30 10:36:45;;;;;;;9.88;1.45;;;716.90;1305.60;;;;;;5039840;28;20041;-73
2021/04/30 10:39:24;;;;;;;8.15;1.58;;;716.90;1152.00;;;;;;5037282;28;20091;-73
2021/04/30 10:41:50;;;;;;;7.95;1.70;;;716.80;1203.20;;;;;;5039959;28;20025;-71
2021/04/30 10:44:25;;;;;;;4.72;1.33;;;692.00;1203.20;;;;;;5039589;28;20049;-73
2021/04/30 10:47:14;;;;;;;11.32;1.80;;;691.90;1254.40;;;;;;5039360;28;20057;-73
2021/04/30 10:49:41;;;;;;;5.45;1.33;;;692.00;1228.80;;;;;;5039348;28;20033;-73
2021/04/30 10:52:16;;;;;;;9.95;1.52;;;692.00;1203.20;;;;;;5039139;28;20030;-72
2021/04/30 10:54:44;;;;;;;9.95;1.67;;;692.00;1254.40;;;;;;5039453;28;20116;-73
2021/04/30 10:57:15;;;;;;;7.03;1.40;;;692.00;1203.20;;;;;;5039693;28;20057;-74
2021/04/30 10:59:45;;;;;;;8.25;1.48;;;716.80;1203.20;;;;;;5039169;28;20040;-72
2021/04/30 11:02:29;;;;;;;7.80;2.42;;;717.10;1177.60;;;;;;5039593;28;20398;-74
2021/04/30 11:05:10;;;;;;;9.90;2.20;;;717.30;1254.40;;;;;;5039491;28;20025;-74
2021/04/30 11:07:41;;;;;;;7.82;2.30;;;717.20;1177.60;;;;;;5038976;28;20406;-73
2021/04/30 11:10:22;;;;;;;6.70;1.83;;;717.60;1203.20;;;;;;5039396;28;20064;-72
2021/04/30 11:13:03;;;;;;;7.40;1.48;;;742.60;1228.80;;;;;;5038226;28;20044;-72
2021/04/30 11:15:53;;;;;;;13.60;1.50;;;742.70;1177.60;;;;;;5039277;28;20032;-74
2021/04/30 11:18:26;;;;;;;6.03;1.65;;;743.20;1177.60;;;;;;5039336;28;20031;-73
2021/04/30 11:21:06;;;;;;;7.57;1.52;;;768.00;1177.60;;;;;;5038418;28;20036;-73
2021/04/30 11:23:42;;;;;;;8.48;1.48;;;768.20;1152.00;;;;;;5038959;28;20096;-72
2021/04/30 11:26:18;;;;;;;9.60;1.60;;;768.60;1152.00;;;;;;5038767;28;20481;-74
2021/04/30 11:28:44;;;;;;;4.50;1.65;;;768.30;1126.40;;;;;;5038553;28;20131;-75
2021/04/30 11:31:18;;;;;;;10.40;1.70;;;768.40;1100.80;;;;;;5037796;28;20104;-72
2021/04/30 11:34:04;;;;;;;6.95;1.60;;;768.60;1075.20;;;;;;5037942;28;20021;-72
2021/04/30 11:36:31;;;;;;;7.88;1.98;;;768.80;1152.00;;;;;;5037180;28;20033;-71
2021/04/30 11:39:24;;;;;;;3.88;1.40;;;793.60;1075.20;;;;;;5037192;28;20025;-70
2021/04/30 11:41:51;;;;;;;5.13;1.63;;;793.90;1100.80;;;;;;5038421;28;20436;-71
2021/04/30 11:44:19;;;;;;;5.85;1.60;;;793.60;1075.20;;;;;;5036079;28;20411;-73
2021/04/30 11:47:01;;;;;;;7.10;1.30;;;768.90;1024.00;;;;;;5037081;28;20049;-71
2021/04/30 11:49:28;;;;;;;5.15;1.75;;;768.90;1024.00;;;;;;5036350;28;20107;-71
2021/04/30 11:51:54;;;;;;;9.27;1.70;;;793.60;1075.20;;;;;;5037749;28;20129;-73
2021/04/30 11:54:28;;;;;;;8.38;1.70;;;793.70;1075.20;;;;;;5037592;28;20111;-74
2021/04/30 11:57:03;;;;;;;7.57;1.95;;;794.10;1075.20;;;;;;5037004;28;20025;-69
2021/04/30 11:59:29;;;;;;;9.35;2.33;;;819.20;1075.20;;;;;;5037202;28;20031;-70
2021/04/30 12:02:02;;;;;;;6.78;2.70;;;820.00;1049.60;;;;;;5037002;28;20377;-71
2021/04/30 12:04:43;;;;;;;6.22;3.13;;;896.80;947.20;;;;;;5036575;28;20049;-70
2021/04/30 12:07:11;;;;;;;8.82;3.58;;;973.70;896.00;;;;;;5037311;28;20355;-71
2021/04/30 12:09:37;;;;;;;8.13;3.53;;;1024.10;819.20;;;;;;5035383;28;20108;-73
2021/04/30 12:12:16;;;;;;;8.57;3.33;;;1024.90;793.60;;;;;;5035187;28;20033;-74